createdAt,value
2018-05-08T00:00:14.209Z,1.80
2018-05-08T00:02:41.728Z,2.60
2018-05-08T00:05:09.217Z,2.30
2018-05-08T00:07:37.501Z,2.20
2018-05-08T00:10:04.999Z,2.40
2018-05-08T00:12:32.517Z,2.30
2018-05-08T00:15:00.001Z,2.30
2018-05-08T00:17:27.490Z,2.63
2018-05-08T00:19:55.009Z,2.27
2018-05-08T00:22:22.658Z,2.60
2018-05-08T00:24:50.181Z,2.83
2018-05-08T00:27:17.682Z,2.30
2018-05-08T00:29:45.191Z,3.07
2018-05-08T00:32:12.669Z,2.80
2018-05-08T00:34:40.201Z,3.17
2018-05-08T00:37:07.706Z,2.50
2018-05-08T00:39:35.218Z,3.47
2018-05-08T00:42:02.711Z,3.03
2018-05-08T00:44:30.215Z,2.90
2018-05-08T00:46:57.707Z,2.87
2018-05-08T00:49:25.978Z,3.23
2018-05-08T00:51:53.458Z,3.27
2018-05-08T00:54:32.793Z,3.10
2018-05-08T00:57:00.287Z,3.53
2018-05-08T00:59:28.545Z,3.20
2018-05-08T01:01:56.053Z,2.70
2018-05-08T01:04:24.314Z,3.13
2018-05-08T01:06:51.825Z,2.67
2018-05-08T01:09:19.350Z,2.80
2018-05-08T01:11:46.858Z,2.33
2018-05-08T01:14:15.121Z,2.70
2018-05-08T01:16:42.638Z,2.20
2018-05-08T01:19:10.124Z,2.30
2018-05-08T01:21:37.618Z,3.00
2018-05-08T01:24:05.097Z,2.20
2018-05-08T01:26:32.622Z,2.80
2018-05-08T01:29:00.110Z,2.60
2018-05-08T01:31:27.645Z,2.80
2018-05-08T01:33:55.894Z,2.27
2018-05-08T01:36:23.425Z,2.53
2018-05-08T01:38:50.910Z,3.23
2018-05-08T01:41:18.785Z,2.60
2018-05-08T01:43:46.274Z,2.93
2018-05-08T01:46:13.793Z,2.10
2018-05-08T01:48:41.294Z,3.07
2018-05-08T01:51:08.838Z,2.80
2018-05-08T01:53:36.327Z,2.53
2018-05-08T01:56:03.810Z,3.20
2018-05-08T01:58:32.103Z,2.60
2018-05-08T02:00:59.585Z,2.83
2018-05-08T02:03:27.108Z,2.73
2018-05-08T02:05:55.366Z,2.60
2018-05-08T02:08:22.899Z,2.70
2018-05-08T02:10:50.381Z,2.77
2018-05-08T02:13:17.902Z,2.90
2018-05-08T02:15:45.950Z,3.40
2018-05-08T02:18:13.473Z,3.47
2018-05-08T02:20:40.962Z,3.60
2018-05-08T02:23:08.509Z,3.50
2018-05-08T02:25:36.762Z,4.17
2018-05-08T02:28:04.267Z,3.50
2018-05-08T02:30:32.534Z,4.20
2018-05-08T02:33:00.035Z,4.37
2018-05-08T02:35:28.334Z,4.20
2018-05-08T02:37:56.593Z,4.30
2018-05-08T02:40:24.732Z,3.80
2018-05-08T02:42:52.221Z,3.47
2018-05-08T02:45:19.751Z,3.80
2018-05-08T02:47:47.993Z,4.10
2018-05-08T02:50:15.538Z,3.30
2018-05-08T02:52:43.807Z,3.93
2018-05-08T02:55:11.352Z,4.10
2018-05-08T02:57:38.840Z,3.77
2018-05-08T03:00:07.117Z,3.30
2018-05-08T03:02:35.368Z,3.67
2018-05-08T03:05:02.902Z,3.63
2018-05-08T03:07:30.390Z,4.50
2018-05-08T03:09:57.919Z,4.40
2018-05-08T03:12:25.423Z,4.23
2018-05-08T03:14:52.953Z,4.03
2018-05-08T03:17:20.443Z,4.20
2018-05-08T03:19:48.761Z,4.60
2018-05-08T03:22:16.272Z,3.63
2018-05-08T03:24:43.754Z,3.97
2018-05-08T03:27:11.283Z,4.40
2018-05-08T03:29:38.777Z,4.53
2018-05-08T03:32:06.308Z,4.20
2018-05-08T03:34:33.793Z,4.33
2018-05-08T03:37:01.314Z,4.10
2018-05-08T03:39:28.809Z,4.10
2018-05-08T03:41:57.098Z,5.00
2018-05-08T03:44:24.590Z,4.53
2018-05-08T03:46:52.118Z,4.23
2018-05-08T03:49:19.634Z,4.77
2018-05-08T03:51:47.164Z,4.50
2018-05-08T03:54:15.435Z,4.43
2018-05-08T03:56:43.001Z,4.40
2018-05-08T03:59:10.486Z,4.20
2018-05-08T04:01:49.766Z,4.40
2018-05-08T04:04:29.124Z,5.07
2018-05-08T04:07:09.695Z,4.43
2018-05-08T04:09:37.945Z,4.70
2018-05-08T04:12:05.471Z,5.30
2018-05-08T04:14:32.946Z,4.63
2018-05-08T04:17:00.472Z,4.47
2018-05-08T04:19:27.958Z,4.50
2018-05-08T04:21:55.454Z,3.93
2018-05-08T04:24:22.974Z,3.53
2018-05-08T04:26:50.477Z,3.90
2018-05-08T04:29:18.753Z,2.60
2018-05-08T04:31:47.047Z,2.90
2018-05-08T04:34:15.334Z,2.90
2018-05-08T04:36:42.886Z,2.70
2018-05-08T04:39:10.358Z,2.60
2018-05-08T04:41:37.841Z,2.50
2018-05-08T04:44:05.373Z,2.80
2018-05-08T04:46:32.961Z,2.60
2018-05-08T04:49:00.538Z,2.80
2018-05-08T04:51:28.066Z,2.90
2018-05-08T04:53:55.620Z,3.27
2018-05-08T04:56:24.091Z,2.63
2018-05-08T04:58:51.670Z,2.80
2018-05-08T05:01:19.248Z,2.97
2018-05-08T05:03:46.736Z,3.20
2018-05-08T05:06:15.031Z,3.17
2018-05-08T05:08:43.299Z,2.70
2018-05-08T05:11:11.685Z,3.40
2018-05-08T05:13:39.127Z,3.43
2018-05-08T05:16:06.654Z,2.63
2018-05-08T05:18:34.147Z,2.50
2018-05-08T05:21:01.661Z,2.37
2018-05-08T05:23:29.141Z,2.83
2018-05-08T05:25:56.675Z,2.57
2018-05-08T05:28:24.165Z,2.03
2018-05-08T05:30:51.679Z,2.40
2018-05-08T05:33:19.205Z,2.67
2018-05-08T05:35:46.727Z,2.33
2018-05-08T05:38:14.986Z,2.40
2018-05-08T05:40:43.277Z,1.70
2018-05-08T05:43:10.765Z,2.60
2018-05-08T05:45:39.122Z,2.53
2018-05-08T05:48:06.636Z,2.40
2018-05-08T05:50:34.191Z,3.50
2018-05-08T05:53:01.680Z,2.40
2018-05-08T05:55:29.178Z,2.27
2018-05-08T05:57:56.702Z,2.30
2018-05-08T06:00:24.213Z,2.17
2018-05-08T06:02:51.744Z,1.90
2018-05-08T06:05:19.268Z,2.00
2018-05-08T06:07:46.791Z,2.63
2018-05-08T06:10:15.062Z,2.50
2018-05-08T06:12:42.602Z,2.10
2018-05-08T06:15:10.093Z,2.57
2018-05-08T06:17:37.618Z,2.30
2018-05-08T06:20:05.106Z,3.00
2018-05-08T06:22:32.642Z,2.00
2018-05-08T06:25:00.138Z,2.10
2018-05-08T06:27:27.666Z,2.80
2018-05-08T06:29:55.150Z,2.10
2018-05-08T06:32:23.451Z,2.27
2018-05-08T06:34:50.934Z,2.60
2018-05-08T06:37:18.425Z,2.30
2018-05-08T06:39:45.938Z,2.47
2018-05-08T06:42:13.431Z,2.30
2018-05-08T06:44:41.720Z,2.20
2018-05-08T06:47:09.991Z,2.40
2018-05-08T06:49:37.510Z,2.30
2018-05-08T06:52:04.997Z,1.63
2018-05-08T06:54:32.522Z,2.00
2018-05-08T06:57:00.774Z,2.37
2018-05-08T06:59:28.322Z,2.67
2018-05-08T07:01:55.812Z,2.50
2018-05-08T07:04:23.351Z,2.50
2018-05-08T07:06:50.858Z,2.60
2018-05-08T07:09:18.395Z,2.20
2018-05-08T07:11:45.892Z,2.60
2018-05-08T07:14:13.410Z,2.80
2018-05-08T07:16:41.661Z,2.50
2018-05-08T07:19:09.175Z,2.77
2018-05-08T07:21:37.435Z,2.60
2018-05-08T07:24:05.002Z,2.17
2018-05-08T07:26:32.465Z,2.87
2018-05-08T07:29:00.008Z,2.90
2018-05-08T07:31:27.498Z,2.57
2018-05-08T07:33:55.050Z,2.17
2018-05-08T07:36:22.523Z,2.40
2018-05-08T07:38:50.006Z,2.17
2018-05-08T07:41:17.531Z,2.13
2018-05-08T07:43:45.798Z,2.10
2018-05-08T07:46:13.323Z,2.10
2018-05-08T07:48:40.813Z,2.30
2018-05-08T07:51:08.342Z,2.47
2018-05-08T07:53:36.598Z,2.10
2018-05-08T07:56:04.146Z,2.13
2018-05-08T07:58:31.633Z,2.30
2018-05-08T08:00:59.154Z,2.20
2018-05-08T08:03:26.676Z,2.23
2018-05-08T08:05:54.215Z,2.27
2018-05-08T08:08:21.720Z,2.40
2018-05-08T08:10:49.244Z,2.10
2018-05-08T08:13:16.757Z,2.47
2018-05-08T08:15:44.291Z,2.13
2018-05-08T08:18:11.778Z,2.30
2018-05-08T08:20:39.294Z,2.80
2018-05-08T08:23:07.081Z,2.53
2018-05-08T08:25:34.587Z,1.97
2018-05-08T08:28:02.083Z,1.70
2018-05-08T08:30:29.606Z,2.30
2018-05-08T08:32:57.878Z,2.40
2018-05-08T08:35:25.420Z,2.13
2018-05-08T08:37:53.049Z,1.73
2018-05-08T08:40:20.545Z,2.30
2018-05-08T08:42:48.069Z,2.43
2018-05-08T08:45:15.550Z,1.97
2018-05-08T08:47:43.176Z,2.20
2018-05-08T08:50:11.379Z,1.70
2018-05-08T08:52:38.917Z,1.47
2018-05-08T08:55:06.427Z,1.80
2018-05-08T08:57:34.745Z,2.07
2018-05-08T09:00:02.236Z,1.97
2018-05-08T09:02:29.783Z,1.70
2018-05-08T09:04:57.270Z,1.80
2018-05-08T09:07:25.526Z,2.13
2018-05-08T09:09:53.041Z,1.50
2018-05-08T09:12:20.538Z,1.80
2018-05-08T09:14:48.074Z,2.00
2018-05-08T09:17:16.335Z,1.97
2018-05-08T09:19:43.923Z,1.90
2018-05-08T09:22:11.374Z,2.50
2018-05-08T09:24:39.203Z,2.03
2018-05-08T09:27:07.539Z,1.90
2018-05-08T09:29:35.047Z,1.60
2018-05-08T09:32:03.455Z,2.30
2018-05-08T09:34:30.976Z,1.63
2018-05-08T09:36:58.498Z,1.77
2018-05-08T09:39:26.040Z,1.63
2018-05-08T09:41:54.302Z,1.90
2018-05-08T09:44:21.827Z,1.60
2018-05-08T09:46:49.325Z,1.50
2018-05-08T09:49:16.856Z,1.60
2018-05-08T09:51:44.350Z,2.37
2018-05-08T09:54:11.920Z,2.20
2018-05-08T09:56:39.382Z,2.10
2018-05-08T09:59:06.878Z,1.50
2018-05-08T10:01:34.411Z,1.87
2018-05-08T10:04:01.930Z,1.70
2018-05-08T10:06:29.460Z,1.73
2018-05-08T10:08:57.715Z,2.33
2018-05-08T10:11:25.234Z,2.00
2018-05-08T10:13:52.728Z,2.00
2018-05-08T10:16:20.269Z,1.80
2018-05-08T10:18:47.769Z,1.67
2018-05-08T10:21:15.293Z,1.77
2018-05-08T10:23:43.550Z,1.70
2018-05-08T10:26:11.078Z,1.97
2018-05-08T10:28:38.578Z,2.07
2018-05-08T10:31:06.139Z,1.70
2018-05-08T10:33:33.636Z,1.73
2018-05-08T10:36:01.131Z,1.60
2018-05-08T10:38:28.684Z,1.50
2018-05-08T10:40:56.189Z,1.60
2018-05-08T10:43:24.473Z,1.93
2018-05-08T10:45:52.733Z,1.07
2018-05-08T10:48:20.253Z,1.80
2018-05-08T10:50:47.746Z,1.80
2018-05-08T10:53:15.302Z,1.40
2018-05-08T10:55:42.872Z,1.47
2018-05-08T10:58:10.419Z,1.37
2018-05-08T11:00:38.686Z,1.50
2018-05-08T11:03:06.173Z,1.80
2018-05-08T11:05:33.708Z,1.77
2018-05-08T11:08:01.194Z,1.43
2018-05-08T11:10:28.763Z,1.70
2018-05-08T11:12:56.258Z,1.40
2018-05-08T11:15:23.779Z,1.60
2018-05-08T11:17:51.270Z,2.00
2018-05-08T11:20:18.806Z,1.60
2018-05-08T11:22:46.287Z,1.57
2018-05-08T11:25:13.817Z,1.57
2018-05-08T11:27:41.314Z,1.37
2018-05-08T11:30:08.831Z,1.77
2018-05-08T11:32:36.313Z,1.83
2018-05-08T11:35:03.867Z,1.50
2018-05-08T11:37:31.354Z,1.63
2018-05-08T11:39:58.837Z,1.30
2018-05-08T11:42:26.359Z,1.43
2018-05-08T11:44:53.869Z,1.40
2018-05-08T11:47:21.392Z,1.67
2018-05-08T11:49:48.889Z,1.57
2018-05-08T11:52:16.408Z,1.33
2018-05-08T11:54:44.675Z,1.30
2018-05-08T11:57:12.196Z,1.57
2018-05-08T11:59:39.679Z,1.40
2018-05-08T12:02:07.207Z,1.80
2018-05-08T12:04:34.731Z,1.63
2018-05-08T12:07:02.253Z,0.87
2018-05-08T12:09:29.752Z,1.13
2018-05-08T12:11:57.269Z,1.67
2018-05-08T12:14:24.752Z,1.20
2018-05-08T12:16:52.337Z,1.17
2018-05-08T12:19:19.822Z,1.13
2018-05-08T12:21:48.100Z,1.30
2018-05-08T12:24:15.637Z,1.20
2018-05-08T12:26:43.118Z,1.30
2018-05-08T12:29:10.637Z,1.40
2018-05-08T12:31:38.919Z,1.03
2018-05-08T12:34:06.429Z,1.63
2018-05-08T12:36:33.927Z,0.80
2018-05-08T12:39:01.453Z,1.30
2018-05-08T12:41:28.947Z,1.00
2018-05-08T12:43:56.470Z,0.90
2018-05-08T12:46:24.730Z,1.30
2018-05-08T12:48:52.258Z,1.23
2018-05-08T12:51:19.741Z,1.20
2018-05-08T12:53:47.266Z,1.03
2018-05-08T12:56:15.614Z,0.80
2018-05-08T12:58:43.818Z,1.93
2018-05-08T13:01:11.352Z,1.37
2018-05-08T13:03:38.838Z,1.00
2018-05-08T13:06:06.346Z,1.60
2018-05-08T13:08:33.863Z,1.07
2018-05-08T13:11:01.463Z,1.33
2018-05-08T13:13:28.898Z,1.13
2018-05-08T13:15:56.422Z,1.10
2018-05-08T13:18:24.005Z,0.87
2018-05-08T13:20:52.207Z,1.10
2018-05-08T13:23:19.705Z,1.13
2018-05-08T13:25:47.226Z,0.97
2018-05-08T13:28:14.708Z,1.60
2018-05-08T13:30:42.210Z,1.17
2018-05-08T13:33:10.501Z,1.60
2018-05-08T13:35:38.746Z,0.70
2018-05-08T13:38:06.270Z,0.93
2018-05-08T13:40:33.759Z,1.50
2018-05-08T13:43:01.275Z,1.07
2018-05-08T13:45:28.762Z,1.20
2018-05-08T13:47:57.059Z,0.87
2018-05-08T13:50:25.117Z,1.70
2018-05-08T13:52:52.636Z,1.47
2018-05-08T13:55:20.131Z,1.00
2018-05-08T13:57:47.691Z,1.00
2018-05-08T14:00:15.189Z,1.37
2018-05-08T14:02:42.737Z,1.00
2018-05-08T14:05:10.238Z,1.57
2018-05-08T14:07:38.489Z,0.80
2018-05-08T14:10:06.026Z,1.33
2018-05-08T14:12:33.510Z,1.10
2018-05-08T14:15:01.031Z,1.00
2018-05-08T14:17:28.512Z,1.00
2018-05-08T14:19:56.030Z,0.97
2018-05-08T14:22:23.518Z,1.07
2018-05-08T14:24:51.118Z,1.20
2018-05-08T14:27:18.549Z,0.87
2018-05-08T14:29:46.808Z,1.13
2018-05-08T14:32:15.098Z,1.37
2018-05-08T14:34:42.588Z,1.00
2018-05-08T14:37:10.900Z,1.10
2018-05-08T14:39:38.369Z,1.70
2018-05-08T14:42:05.907Z,1.77
2018-05-08T14:44:34.175Z,0.80
2018-05-08T14:47:01.698Z,1.20
2018-05-08T14:49:29.227Z,1.93
2018-05-08T14:51:56.724Z,1.30
2018-05-08T14:54:24.221Z,0.90
2018-05-08T14:56:51.747Z,1.50
2018-05-08T14:59:19.244Z,1.10
2018-05-08T15:01:46.935Z,0.90
2018-05-08T15:04:14.463Z,1.33
2018-05-08T15:06:41.975Z,1.50
2018-05-08T15:09:09.464Z,1.10
2018-05-08T15:11:36.941Z,1.90
2018-05-08T15:14:04.464Z,1.10
2018-05-08T15:16:32.710Z,1.20
2018-05-08T15:19:00.231Z,1.40
2018-05-08T15:21:28.481Z,1.13
2018-05-08T15:23:56.012Z,1.57
2018-05-08T15:26:23.494Z,1.10
2018-05-08T15:28:51.029Z,1.50
2018-05-08T15:31:19.273Z,0.70
2018-05-08T15:33:46.787Z,1.00
2018-05-08T15:36:15.036Z,1.00
2018-05-08T15:38:42.561Z,1.20
2018-05-08T15:41:10.063Z,1.20
2018-05-08T15:43:37.569Z,1.27
2018-05-08T15:46:05.049Z,1.77
2018-05-08T15:48:32.565Z,1.33
2018-05-08T15:51:00.051Z,1.40
2018-05-08T15:53:27.573Z,1.00
2018-05-08T15:55:55.823Z,1.40
2018-05-08T15:58:23.313Z,1.50
2018-05-08T16:00:50.837Z,1.60
2018-05-08T16:03:18.344Z,1.20
2018-05-08T16:05:45.867Z,0.90
2018-05-08T16:08:13.361Z,1.07
2018-05-08T16:10:40.887Z,1.27
2018-05-08T16:13:09.134Z,1.57
2018-05-08T16:15:36.652Z,1.30
2018-05-08T16:18:04.905Z,1.00
2018-05-08T16:20:32.409Z,1.10
2018-05-08T16:23:00.657Z,1.33
2018-05-08T16:25:28.323Z,1.33
2018-05-08T16:27:55.821Z,1.00
2018-05-08T16:30:23.442Z,1.03
2018-05-08T16:32:50.821Z,1.27
2018-05-08T16:35:18.301Z,1.27
2018-05-08T16:37:45.833Z,1.10
2018-05-08T16:40:13.381Z,1.17
2018-05-08T16:42:40.874Z,1.80
2018-05-08T16:45:08.360Z,1.30
2018-05-08T16:47:35.897Z,1.60
2018-05-08T16:50:03.390Z,1.83
2018-05-08T16:52:31.670Z,1.10
2018-05-08T16:54:59.195Z,1.37
2018-05-08T16:57:26.713Z,1.50
2018-05-08T16:59:55.005Z,1.30
2018-05-08T17:02:22.514Z,1.60
2018-05-08T17:04:50.096Z,1.90
2018-05-08T17:07:17.540Z,2.30
2018-05-08T17:09:45.021Z,1.40
2018-05-08T17:12:12.549Z,1.40
2018-05-08T17:14:40.033Z,1.07
2018-05-08T17:17:07.558Z,1.07
2018-05-08T17:19:35.097Z,1.27
2018-05-08T17:22:02.617Z,1.20
2018-05-08T17:24:30.343Z,1.37
2018-05-08T17:26:59.897Z,1.40
2018-05-08T17:29:27.385Z,1.53
2018-05-08T17:31:54.871Z,0.97
2018-05-08T17:34:22.400Z,1.63
2018-05-08T17:36:49.912Z,1.70
2018-05-08T17:39:17.425Z,0.97
2018-05-08T17:41:44.912Z,1.20
2018-05-08T17:44:12.603Z,1.47
2018-05-08T17:46:40.090Z,1.40
2018-05-08T17:49:07.601Z,1.30
2018-05-08T17:51:35.096Z,1.03
2018-05-08T17:54:02.618Z,1.40
2018-05-08T17:56:31.095Z,1.53
2018-05-08T17:58:59.430Z,1.17
2018-05-08T18:01:26.957Z,1.93
2018-05-08T18:03:54.491Z,1.20
2018-05-08T18:06:21.974Z,1.73
2018-05-08T18:08:49.492Z,1.00
2018-05-08T18:11:17.056Z,1.20
2018-05-08T18:13:47.317Z,1.50
2018-05-08T18:16:14.934Z,1.60
2018-05-08T18:18:42.451Z,1.33
2018-05-08T18:21:09.949Z,1.50
2018-05-08T18:23:38.915Z,1.33
2018-05-08T18:26:06.716Z,1.63
2018-05-08T18:28:34.198Z,1.20
2018-05-08T18:31:02.470Z,1.13
2018-05-08T18:33:30.794Z,1.10
2018-05-08T18:35:58.328Z,1.47
2018-05-08T18:38:26.594Z,2.23
2018-05-08T18:40:54.108Z,1.50
2018-05-08T18:43:21.614Z,1.60
2018-05-08T18:45:49.115Z,2.13
2018-05-08T18:48:16.606Z,2.40
2018-05-08T18:50:44.899Z,1.87
2018-05-08T18:53:13.150Z,2.00
2018-05-08T18:55:40.671Z,2.03
2018-05-08T18:58:08.366Z,1.57
2018-05-08T19:00:41.587Z,1.60
2018-05-08T19:03:09.080Z,1.73
2018-05-08T19:05:36.609Z,2.07
2018-05-08T19:08:04.089Z,1.83
2018-05-08T19:10:31.607Z,1.80
2018-05-08T19:12:59.103Z,2.00
2018-05-08T19:15:32.977Z,1.80
2018-05-08T19:18:00.809Z,2.23
2018-05-08T19:20:28.447Z,1.77
2018-05-08T19:22:55.982Z,2.07
2018-05-08T19:25:23.469Z,2.00
2018-05-08T19:27:51.061Z,1.60
2018-05-08T19:30:24.183Z,1.87
2018-05-08T19:32:51.709Z,1.77
2018-05-08T19:35:25.234Z,1.43
2018-05-08T19:37:58.314Z,1.77
2018-05-08T19:40:25.801Z,1.87
2018-05-08T19:42:53.316Z,1.80
2018-05-08T19:45:21.566Z,1.90
2018-05-08T19:47:50.086Z,1.80
2018-05-08T19:50:17.570Z,1.97
2018-05-08T19:52:45.594Z,2.23
2018-05-08T19:55:16.291Z,1.90
2018-05-08T19:57:44.024Z,1.60
2018-05-08T20:00:11.516Z,2.00
2018-05-08T20:02:39.035Z,1.70
2018-05-08T20:05:06.706Z,2.60
2018-05-08T20:07:34.217Z,1.70
2018-05-08T20:10:01.711Z,1.83
2018-05-08T20:12:29.230Z,1.70
2018-05-08T20:14:56.714Z,2.00
2018-05-08T20:17:24.229Z,2.27
2018-05-08T20:19:51.705Z,1.67
2018-05-08T20:22:19.205Z,1.80
2018-05-08T20:24:46.683Z,1.80
2018-05-08T20:27:14.220Z,1.37
2018-05-08T20:29:41.697Z,2.20
2018-05-08T20:32:09.173Z,3.17
2018-05-08T20:34:36.690Z,2.77
2018-05-08T20:37:05.033Z,2.20
2018-05-08T20:39:32.542Z,2.80
2018-05-08T20:42:00.035Z,2.33
2018-05-08T20:44:27.561Z,2.37
2018-05-08T20:46:55.805Z,2.80
2018-05-08T20:49:23.329Z,2.70
2018-05-08T20:51:51.576Z,2.73
2018-05-08T20:54:19.095Z,2.47
2018-05-08T20:56:46.595Z,2.67
2018-05-08T20:59:14.105Z,2.20
2018-05-08T21:01:41.608Z,2.47
2018-05-08T21:04:09.133Z,2.50
2018-05-08T21:06:36.632Z,2.23
2018-05-08T21:09:04.918Z,2.13
2018-05-08T21:11:33.169Z,1.90
2018-05-08T21:14:00.705Z,2.07
2018-05-08T21:16:28.199Z,1.67
2018-05-08T21:18:55.683Z,2.00
2018-05-08T21:21:23.200Z,1.90
2018-05-08T21:23:51.308Z,1.90
2018-05-08T21:26:18.823Z,1.93
2018-05-08T21:28:52.042Z,1.90
2018-05-08T21:31:19.549Z,1.70
2018-05-08T21:33:47.030Z,1.87
2018-05-08T21:36:14.573Z,2.13
2018-05-08T21:38:42.831Z,2.50
2018-05-08T21:41:10.345Z,2.00
2018-05-08T21:43:38.599Z,2.17
2018-05-08T21:46:06.121Z,1.70
2018-05-08T21:48:33.602Z,1.70
2018-05-08T21:51:01.123Z,2.57
2018-05-08T21:53:28.610Z,2.33
2018-05-08T21:55:56.921Z,3.00
2018-05-08T21:58:24.417Z,1.93
2018-05-08T22:00:51.906Z,2.40
2018-05-08T22:03:19.433Z,2.10
2018-05-08T22:05:46.913Z,2.40
2018-05-08T22:08:14.452Z,2.00
2018-05-08T22:10:41.985Z,2.67
2018-05-08T22:13:09.516Z,2.40
2018-05-08T22:15:37.015Z,2.23
2018-05-08T22:18:05.307Z,2.50
2018-05-08T22:20:32.786Z,1.97
2018-05-08T22:23:00.305Z,2.33
2018-05-08T22:25:28.552Z,2.50
2018-05-08T22:27:56.082Z,2.50
2018-05-08T22:30:23.600Z,2.40
2018-05-08T22:32:51.115Z,2.50
2018-05-08T22:35:19.357Z,2.50
2018-05-08T22:37:46.903Z,1.77
2018-05-08T22:40:14.386Z,2.13
2018-05-08T22:42:41.916Z,2.10
2018-05-08T22:45:10.197Z,2.20
2018-05-08T22:47:38.443Z,2.50
2018-05-08T22:50:05.979Z,1.80
2018-05-08T22:52:33.482Z,1.93
2018-05-08T22:55:01.001Z,2.13
2018-05-08T22:57:28.490Z,1.87
2018-05-08T22:59:56.002Z,2.10
2018-05-08T23:02:23.481Z,2.10
2018-05-08T23:04:50.997Z,1.93
2018-05-08T23:07:19.241Z,2.67
2018-05-08T23:09:46.757Z,2.17
2018-05-08T23:12:15.000Z,2.07
2018-05-08T23:14:42.518Z,1.87
2018-05-08T23:17:10.761Z,2.07
2018-05-08T23:19:38.278Z,1.80
2018-05-08T23:22:05.769Z,1.87
2018-05-08T23:24:33.283Z,1.80
2018-05-08T23:27:00.777Z,1.97
2018-05-08T23:29:28.271Z,2.00
2018-05-08T23:31:55.785Z,2.00
2018-05-08T23:34:23.317Z,2.10
2018-05-08T23:36:51.129Z,2.00
2018-05-08T23:39:18.709Z,2.60
2018-05-08T23:41:46.217Z,2.07
2018-05-08T23:44:13.694Z,2.23
2018-05-08T23:46:41.978Z,2.10
2018-05-08T23:49:10.214Z,2.40
2018-05-08T23:51:37.734Z,2.00
2018-05-08T23:54:05.213Z,1.93
2018-05-08T23:56:33.493Z,2.20
2018-05-08T23:59:00.969Z,1.90
